Time;durP1;ratioP1;P1;durP2;ratioP2;P2;SDS_P1;SDS_P2;PMS_P1;PMS_P2;Temp;Humidity;BMP_temperature;BMP_pressure;BME280_temperature;BME280_humidity;BME280_pressure;Samples;Min_cycle;Max_cycle;Signal;HPM_P1;HPM_P2
2021/11/28 00:01:15;;;;;;;38.80;16.48;;;;;;;1.83;100.00;95762.28;4938792;29;20048;-80
2021/11/28 00:03:42;;;;;;;38.65;17.10;;;;;;;1.65;100.00;95737.34;4909072;29;20051;-80
2021/11/28 00:06:23;;;;;;;41.28;16.77;;;;;;;1.63;100.00;95738.75;4951714;29;20079;-80
2021/11/28 00:11:21;;;;;;;41.67;17.35;;;;;;;1.64;100.00;95727.78;4958193;29;20075;-80
2021/11/28 00:13:51;;;;;;;37.15;17.20;;;;;;;1.54;100.00;95733.38;4950290;29;20078;-80
2021/11/28 00:16:18;;;;;;;33.95;15.88;;;;;;;1.53;100.00;95739.00;4957458;29;20078;-80
2021/11/28 00:18:46;;;;;;;30.83;14.35;;;;;;;1.51;100.00;95736.63;4957324;29;20051;-80
2021/11/28 00:21:13;;;;;;;29.23;13.43;;;;;;;1.43;100.00;95723.25;4951334;29;20040;-80
2021/11/28 00:23:40;;;;;;;23.60;10.70;;;;;;;1.44;100.00;95748.81;4943520;29;20055;-80
2021/11/28 00:26:07;;;;;;;18.08;10.48;;;;;;;1.45;100.00;95742.38;4948599;28;20091;-80
2021/11/28 00:28:34;;;;;;;19.80;10.82;;;;;;;1.46;100.00;95739.44;4953312;29;20055;-80
2021/11/28 00:31:01;;;;;;;19.90;10.13;;;;;;;1.49;100.00;95735.38;4960077;29;20049;-79
2021/11/28 00:33:28;;;;;;;20.95;9.55;;;;;;;1.48;100.00;95721.25;4951620;29;20054;-79
2021/11/28 00:35:55;;;;;;;18.08;9.50;;;;;;;1.52;100.00;95732.09;4951213;29;20058;-78
2021/11/28 00:38:22;;;;;;;18.77;9.52;;;;;;;1.39;100.00;95727.63;4959909;29;20063;-80
2021/11/28 00:40:49;;;;;;;18.50;9.10;;;;;;;1.48;100.00;95723.13;4959364;29;20054;-79
2021/11/28 00:43:16;;;;;;;17.88;8.88;;;;;;;1.42;100.00;95730.44;4958799;29;20051;-79
2021/11/28 00:45:43;;;;;;;19.42;9.73;;;;;;;1.32;100.00;95724.59;4956215;29;20099;-79
2021/11/28 00:48:09;;;;;;;18.05;8.75;;;;;;;1.27;100.00;95730.81;4953891;29;20051;-79
2021/11/28 00:53:10;;;;;;;17.55;9.30;;;;;;;1.36;100.00;95736.22;4958781;29;20124;-78
2021/11/28 00:55:37;;;;;;;19.05;9.48;;;;;;;1.30;100.00;95735.53;4957825;29;20063;-79
2021/11/28 00:58:04;;;;;;;20.35;8.75;;;;;;;1.33;100.00;95742.16;4958383;29;20467;-81
2021/11/28 01:00:30;;;;;;;18.10;8.82;;;;;;;1.26;100.00;95747.91;4957129;29;20052;-78
2021/11/28 01:02:57;;;;;;;16.88;8.65;;;;;;;1.32;100.00;95759.25;4969216;28;20050;-79
2021/11/28 01:05:24;;;;;;;18.30;9.18;;;;;;;1.25;100.00;95768.44;4971741;28;20471;-79
2021/11/28 01:07:51;;;;;;;19.27;10.73;;;;;;;1.27;100.00;95763.59;4957471;29;20495;-78
2021/11/28 01:10:17;;;;;;;19.63;11.57;;;;;;;1.25;100.00;95768.44;4956241;29;20051;-79
2021/11/28 01:12:45;;;;;;;24.63;12.05;;;;;;;1.22;100.00;95766.38;4957369;28;20055;-79
2021/11/28 01:15:12;;;;;;;26.70;14.55;;;;;;;1.15;100.00;95767.88;4956983;28;20498;-79
2021/11/28 01:17:39;;;;;;;30.70;16.65;;;;;;;1.12;100.00;95771.91;4971950;28;20063;-79
2021/11/28 01:20:09;;;;;;;32.85;16.45;;;;;;;1.18;100.00;95764.59;4956277;28;20051;-79
2021/11/28 01:22:36;;;;;;;30.15;15.65;;;;;;;1.17;100.00;95752.38;4956159;28;20085;-78
2021/11/28 01:25:03;;;;;;;26.90;14.40;;;;;;;1.14;100.00;95750.28;4956578;28;20055;-79
2021/11/28 01:27:30;;;;;;;23.95;13.50;;;;;;;1.20;100.00;95765.09;4957090;28;20463;-79
2021/11/28 01:29:57;;;;;;;31.00;15.25;;;;;;;1.10;100.00;95770.66;4956227;28;20059;-79
2021/11/28 01:32:23;;;;;;;42.17;19.23;;;;;;;1.13;100.00;95783.38;4955488;29;20055;-79
2021/11/28 01:34:50;;;;;;;29.98;15.30;;;;;;;1.08;100.00;95778.16;4955389;28;20055;-79
2021/11/28 01:37:17;;;;;;;26.92;14.65;;;;;;;1.02;100.00;95774.03;4971093;28;20383;-79
2021/11/28 01:39:45;;;;;;;29.00;14.68;;;;;;;0.95;100.00;95760.31;4955157;29;20447;-79
2021/11/28 01:42:12;;;;;;;25.45;13.27;;;;;;;1.02;100.00;95782.81;4970995;28;20195;-79
2021/11/28 01:44:39;;;;;;;27.42;14.23;;;;;;;1.03;100.00;95773.69;4954134;29;20054;-78
2021/11/28 01:47:06;;;;;;;25.02;13.02;;;;;;;1.07;100.00;95772.03;4955358;28;20059;-78
2021/11/28 01:49:32;;;;;;;27.55;14.00;;;;;;;0.95;100.00;95769.13;4956335;29;20063;-79
2021/11/28 01:51:59;;;;;;;27.08;13.65;;;;;;;0.97;100.00;95771.47;4958479;28;20093;-79
2021/11/28 01:54:25;;;;;;;23.67;13.07;;;;;;;0.94;100.00;95764.84;4956779;28;20051;-77
2021/11/28 01:56:52;;;;;;;26.38;13.20;;;;;;;0.96;100.00;95751.22;4948945;29;20106;-77
2021/11/28 01:59:19;;;;;;;24.95;12.93;;;;;;;0.82;100.00;95748.63;4954875;29;20111;-78
2021/11/28 02:01:47;;;;;;;26.17;12.88;;;;;;;0.58;100.00;95740.84;4948215;29;20051;-77
2021/11/28 02:04:18;;;;;;;22.30;12.35;;;;;;;0.48;100.00;95750.91;4953885;28;20135;-77
2021/11/28 02:06:46;;;;;;;23.02;11.63;;;;;;;0.47;100.00;95747.47;4948178;29;20145;-78
2021/11/28 02:09:14;;;;;;;17.83;10.80;;;;;;;0.42;100.00;95747.56;4954740;29;20192;-78
2021/11/28 02:11:46;;;;;;;18.90;10.38;;;;;;;0.39;100.00;95747.34;4944238;29;20048;-78
2021/11/28 02:14:12;;;;;;;20.80;10.93;;;;;;;0.35;100.00;95741.06;4942458;29;20051;-78
2021/11/28 02:16:39;;;;;;;16.83;9.52;;;;;;;0.29;100.00;95737.72;4946925;29;20084;-78
2021/11/28 02:19:06;;;;;;;16.65;10.05;;;;;;;0.18;100.00;95733.66;4954066;29;20135;-77
2021/11/28 02:21:35;;;;;;;19.55;9.85;;;;;;;0.08;100.00;95730.44;4955673;29;20055;-77
2021/11/28 02:24:02;;;;;;;17.73;9.35;;;;;;;-0.09;100.00;95723.00;4956175;29;20106;-77
2021/11/28 02:26:30;;;;;;;19.08;9.63;;;;;;;-0.04;100.00;95721.06;4954507;29;20083;-77
2021/11/28 02:28:57;;;;;;;22.92;10.07;;;;;;;0.09;100.00;95716.81;4956161;29;20115;-76
2021/11/28 02:31:24;;;;;;;22.00;11.43;;;;;;;0.14;100.00;95722.03;4954796;29;20039;-77
2021/11/28 02:33:50;;;;;;;23.00;11.45;;;;;;;0.05;100.00;95720.38;4948155;29;20055;-77
2021/11/28 02:36:17;;;;;;;22.75;11.20;;;;;;;-0.05;100.00;95716.81;4955096;29;20051;-76
2021/11/28 02:38:45;;;;;;;20.77;10.30;;;;;;;-0.12;100.00;95721.72;4955861;29;20571;-77
2021/11/28 02:41:12;;;;;;;21.52;9.40;;;;;;;-0.22;100.00;95719.25;4955085;29;20079;-76
2021/11/28 02:43:39;;;;;;;17.15;9.70;;;;;;;-0.05;100.00;95724.00;4953141;29;20078;-76
2021/11/28 02:46:08;;;;;;;21.40;10.50;;;;;;;0.10;100.00;95722.94;4951987;28;20105;-76
2021/11/28 02:48:39;;;;;;;23.13;9.68;;;;;;;0.20;100.00;95726.19;4954361;29;20052;-76
2021/11/28 02:51:05;;;;;;;19.75;9.77;;;;;;;0.20;100.00;95736.84;4953822;29;20047;-77
2021/11/28 02:53:33;;;;;;;19.35;10.43;;;;;;;0.21;100.00;95735.72;4953623;29;20058;-76
2021/11/28 02:56:02;;;;;;;23.52;11.13;;;;;;;0.24;100.00;95739.66;4963644;28;20078;-76
2021/11/28 02:58:32;;;;;;;20.63;10.90;;;;;;;0.30;100.00;95749.16;4966116;28;20121;-76
2021/11/28 03:01:11;;;;;;;21.85;11.13;;;;;;;0.37;100.00;95744.22;4955360;28;20539;-77
2021/11/28 03:03:39;;;;;;;21.95;10.88;;;;;;;0.45;100.00;95746.97;4947269;28;20121;-76
2021/11/28 03:06:06;;;;;;;21.52;11.00;;;;;;;0.51;100.00;95745.81;4956074;29;20055;-76
2021/11/28 03:08:34;;;;;;;21.33;10.95;;;;;;;0.65;100.00;95759.06;4953191;29;20051;-76
2021/11/28 03:11:01;;;;;;;21.48;10.95;;;;;;;0.69;100.00;95762.75;4953977;29;20047;-76
2021/11/28 03:13:40;;;;;;;20.17;10.85;;;;;;;0.75;100.00;95755.44;4951531;29;20059;-76
2021/11/28 03:16:11;;;;;;;20.33;10.52;;;;;;;0.74;100.00;95748.53;4948253;29;20051;-76
2021/11/28 03:18:39;;;;;;;23.95;10.70;;;;;;;0.72;100.00;95759.47;4950910;28;20449;-76
2021/11/28 03:21:14;;;;;;;21.25;11.18;;;;;;;0.78;100.00;95758.28;4948975;28;20055;-76
2021/11/28 03:23:43;;;;;;;21.60;10.43;;;;;;;0.77;100.00;95758.59;4950582;29;20048;-75
2021/11/28 03:26:30;;;;;;;22.20;10.02;;;;;;;0.74;100.00;95754.63;4963662;28;20067;-76
2021/11/28 03:29:04;;;;;;;23.58;10.73;;;;;;;0.61;100.00;95774.06;4965594;28;20472;-76
2021/11/28 03:31:35;;;;;;;19.17;10.25;;;;;;;0.45;100.00;95767.47;4950497;28;20054;-76
2021/11/28 03:34:03;;;;;;;22.10;11.30;;;;;;;0.33;100.00;95769.84;4944670;28;20656;-76
2021/11/28 03:36:31;;;;;;;22.70;11.00;;;;;;;0.32;100.00;95769.06;4953180;29;20055;-76
2021/11/28 03:38:58;;;;;;;24.13;10.68;;;;;;;0.44;100.00;95782.66;4948108;29;20048;-76
2021/11/28 03:41:28;;;;;;;21.92;10.25;;;;;;;0.58;100.00;95772.81;4949410;29;20075;-76
2021/11/28 03:43:57;;;;;;;18.13;10.10;;;;;;;0.58;100.00;95775.47;4943454;29;21548;-76
2021/11/28 03:46:27;;;;;;;28.90;10.85;;;;;;;0.65;100.00;95772.38;4947585;29;20055;-76
2021/11/28 03:48:55;;;;;;;19.98;10.43;;;;;;;0.56;100.00;95772.31;4947775;29;20115;-76
2021/11/28 03:51:21;;;;;;;27.58;11.32;;;;;;;0.62;100.00;95768.44;4943513;29;20051;-76
2021/11/28 03:53:48;;;;;;;23.33;11.10;;;;;;;0.61;100.00;95771.41;4946676;29;20110;-76
2021/11/28 03:56:15;;;;;;;27.02;11.73;;;;;;;0.69;100.00;95778.72;4937215;29;20062;-77
2021/11/28 03:58:42;;;;;;;22.20;10.93;;;;;;;0.69;100.00;95770.72;4941162;29;20051;-76
2021/11/28 04:01:11;;;;;;;28.27;11.15;;;;;;;0.67;100.00;95767.56;4948604;29;20044;-76
2021/11/28 04:03:39;;;;;;;20.23;9.95;;;;;;;0.65;100.00;95772.38;4943367;28;20047;-76
2021/11/28 04:06:07;;;;;;;22.70;10.45;;;;;;;0.59;100.00;95777.03;4949967;29;20102;-76
2021/11/28 04:08:36;;;;;;;18.33;9.55;;;;;;;0.60;100.00;95770.63;4957706;29;20475;-76
2021/11/28 04:11:02;;;;;;;25.20;10.73;;;;;;;0.61;100.00;95772.22;4951539;29;20102;-76
2021/11/28 04:13:30;;;;;;;19.98;10.27;;;;;;;0.45;100.00;95767.47;4955608;29;20059;-76
2021/11/28 04:15:57;;;;;;;23.90;11.23;;;;;;;0.48;100.00;95775.66;4950994;29;20077;-76
2021/11/28 04:18:23;;;;;;;21.33;10.82;;;;;;;0.47;100.00;95778.59;4946576;29;20095;-76
2021/11/28 04:20:50;;;;;;;17.73;10.07;;;;;;;0.43;100.00;95773.09;4948966;29;20067;-76
2021/11/28 04:23:17;;;;;;;18.52;9.60;;;;;;;0.40;100.00;95772.91;4959750;29;20122;-76
2021/11/28 04:25:44;;;;;;;22.23;9.90;;;;;;;0.41;100.00;95774.47;4961055;29;20066;-76
2021/11/28 04:28:11;;;;;;;20.63;10.38;;;;;;;0.10;100.00;95773.47;4978262;28;20031;-74
2021/11/28 04:30:38;;;;;;;17.23;9.65;;;;;;;-0.05;100.00;95783.28;4973693;28;20059;-77
2021/11/28 04:33:05;;;;;;;19.95;9.07;;;;;;;-0.08;100.00;95767.91;4957024;29;20110;-76
2021/11/28 04:35:31;;;;;;;26.40;12.52;;;;;;;0.03;100.00;95778.41;4956956;29;20419;-76
2021/11/28 04:37:58;;;;;;;46.92;20.30;;;;;;;0.09;100.00;95777.19;4958611;29;20085;-76
2021/11/28 04:40:25;;;;;;;39.97;16.55;;;;;;;-0.01;100.00;95768.34;4956772;29;20091;-76
2021/11/28 04:42:51;;;;;;;35.25;14.70;;;;;;;-0.06;100.00;95767.63;4957940;29;20043;-76
2021/11/28 04:45:18;;;;;;;32.20;14.70;;;;;;;-0.22;100.00;95761.78;4958388;29;20054;-76
2021/11/28 04:47:45;;;;;;;26.10;12.70;;;;;;;-0.09;100.00;95771.66;4957692;29;20135;-76
2021/11/28 04:50:13;;;;;;;26.98;12.60;;;;;;;-0.05;100.00;95763.88;4956308;29;20051;-76
2021/11/28 04:52:41;;;;;;;25.40;12.63;;;;;;;-0.08;100.00;95770.56;4958776;29;20055;-76
2021/11/28 04:55:11;;;;;;;21.30;11.82;;;;;;;-0.11;100.00;95778.34;4958469;29;20063;-78
2021/11/28 04:57:38;;;;;;;28.48;12.70;;;;;;;-0.09;100.00;95773.53;4957352;28;20051;-77
2021/11/28 05:00:18;;;;;;;26.00;11.85;;;;;;;-0.19;100.00;95766.53;4949561;29;20138;-76
2021/11/28 05:02:48;;;;;;;38.47;14.73;;;;;;;-0.35;100.00;95775.03;4957922;28;20051;-76
2021/11/28 05:05:15;;;;;;;47.65;17.75;;;;;;;-0.21;100.00;95767.91;4957905;29;20054;-76
2021/11/28 05:07:42;;;;;;;40.38;15.48;;;;;;;-0.34;100.00;95766.78;4948389;28;20114;-77
2021/11/28 05:10:09;;;;;;;32.45;14.25;;;;;;;-0.23;100.00;95770.03;4955139;29;20105;-76
2021/11/28 05:12:36;;;;;;;28.65;13.05;;;;;;;-0.56;100.00;95763.94;4957177;29;20047;-76
2021/11/28 05:15:04;;;;;;;28.65;11.45;;;;;;;-0.51;100.00;95761.22;4955942;29;20055;-77
2021/11/28 05:17:31;;;;;;;57.97;20.23;;;;;;;-0.52;100.00;95754.34;4956577;29;20055;-76
2021/11/28 05:19:58;;;;;;;49.28;19.35;;;;;;;-0.60;100.00;95752.34;4955781;29;20043;-77
2021/11/28 05:22:25;;;;;;;59.60;23.33;;;;;;;-0.74;100.00;95751.47;4956661;29;20079;-77
2021/11/28 05:24:52;;;;;;;42.92;16.60;;;;;;;-0.87;100.00;95749.56;4956807;29;20055;-77
2021/11/28 05:27:22;;;;;;;29.98;13.75;;;;;;;-0.88;100.00;95761.25;4955708;29;20061;-77
2021/11/28 05:29:49;;;;;;;28.20;13.18;;;;;;;-0.90;100.00;95760.75;4955579;29;20051;-78
2021/11/28 05:32:16;;;;;;;32.30;14.13;;;;;;;-0.70;100.00;95771.09;4957413;29;20464;-78
2021/11/28 05:34:43;;;;;;;31.30;13.60;;;;;;;-0.65;100.00;95763.03;4957082;29;20103;-78
2021/11/28 05:37:11;;;;;;;29.60;13.82;;;;;;;-0.60;100.00;95755.00;4942735;29;20075;-78
2021/11/28 05:39:38;;;;;;;33.25;14.45;;;;;;;-0.51;100.00;95755.88;4938514;29;20060;-77
2021/11/28 05:42:05;;;;;;;29.83;14.32;;;;;;;-0.45;100.00;95762.72;4937074;29;20069;-78
2021/11/28 05:44:32;;;;;;;27.27;12.77;;;;;;;-0.45;100.00;95752.09;4936981;29;20051;-78
2021/11/28 05:46:58;;;;;;;26.17;12.45;;;;;;;-0.51;100.00;95745.25;4936884;29;20058;-78
2021/11/28 05:49:26;;;;;;;24.20;10.82;;;;;;;-0.57;100.00;95750.97;4937975;29;20496;-77
2021/11/28 05:51:53;;;;;;;19.73;9.88;;;;;;;-0.60;100.00;95740.91;4937698;29;20044;-78
2021/11/28 05:54:19;;;;;;;21.63;10.57;;;;;;;-0.53;100.00;95738.66;4936807;29;20122;-77
2021/11/28 05:56:46;;;;;;;22.02;11.88;;;;;;;-0.46;100.00;95749.69;4937435;29;20059;-78
2021/11/28 05:59:12;;;;;;;21.88;10.65;;;;;;;-0.43;100.00;95747.25;4936927;29;20079;-78
2021/11/28 06:01:39;;;;;;;24.75;11.38;;;;;;;-0.54;100.00;95734.44;4936747;29;20048;-78
2021/11/28 06:06:54;;;;;;;24.83;12.93;;;;;;;-0.99;100.00;95751.84;5147948;23;20058;-79
2021/11/28 06:09:21;;;;;;;25.48;11.65;;;;;;;-0.96;100.00;95749.44;4946427;29;20098;-81
2021/11/28 06:11:47;;;;;;;23.77;12.30;;;;;;;-0.98;100.00;95756.09;4962789;29;20070;-79
2021/11/28 06:14:14;;;;;;;36.80;14.07;;;;;;;-0.79;100.00;95760.31;4944861;29;20102;-82
2021/11/28 06:16:41;;;;;;;28.00;14.15;;;;;;;-0.60;100.00;95748.88;4962606;29;20077;-80
2021/11/28 06:19:07;;;;;;;27.73;13.63;;;;;;;-0.64;100.00;95730.06;4961287;28;20162;-81
2021/11/28 06:21:34;;;;;;;26.58;13.13;;;;;;;-0.49;100.00;95742.34;4961760;29;20047;-80
2021/11/28 06:24:01;;;;;;;25.45;12.48;;;;;;;-0.62;100.00;95739.31;4944023;29;20428;-81
2021/11/28 06:26:27;;;;;;;24.30;12.32;;;;;;;-0.72;100.00;95731.50;4960956;29;20114;-79
2021/11/28 06:28:54;;;;;;;24.65;11.68;;;;;;;-1.16;100.00;95711.78;4953429;29;20075;-80
2021/11/28 06:31:21;;;;;;;25.38;11.00;;;;;;;-0.99;100.00;95733.28;4956593;29;20616;-80
2021/11/28 06:33:48;;;;;;;23.15;10.90;;;;;;;-0.89;100.00;95719.84;4957825;29;20206;-82
2021/11/28 06:36:14;;;;;;;43.83;14.88;;;;;;;-1.05;100.00;95729.91;4958435;29;20055;-80
2021/11/28 06:38:41;;;;;;;24.92;10.38;;;;;;;-1.16;100.00;95725.81;4964900;29;20047;-81
2021/11/28 06:41:08;;;;;;;22.17;10.57;;;;;;;-0.98;100.00;95732.22;4967734;29;20117;-80
2021/11/28 06:43:35;;;;;;;22.27;11.10;;;;;;;-0.92;100.00;95753.06;4939661;29;20942;-81
2021/11/28 06:46:02;;;;;;;22.25;11.07;;;;;;;-0.94;100.00;95754.44;4937050;29;20106;-81
2021/11/28 06:48:30;;;;;;;29.33;10.55;;;;;;;-1.17;100.00;95745.47;4928631;29;20130;-74
2021/11/28 06:50:56;;;;;;;22.38;10.77;;;;;;;-0.95;100.00;95761.63;4958624;29;20074;-80
2021/11/28 06:53:23;;;;;;;26.30;11.30;;;;;;;-0.83;100.00;95755.88;4943879;29;20078;-81
2021/11/28 06:55:50;;;;;;;20.80;11.23;;;;;;;-0.84;100.00;95767.56;4960697;29;20058;-81
2021/11/28 06:58:17;;;;;;;21.60;11.82;;;;;;;-0.79;100.00;95754.22;4961759;29;20052;-81
2021/11/28 07:00:44;;;;;;;23.23;11.23;;;;;;;-0.69;100.00;95770.00;4962576;29;20058;-80
2021/11/28 07:03:11;;;;;;;25.42;12.70;;;;;;;-0.74;100.00;95760.25;4948575;29;20055;-81
2021/11/28 07:05:38;;;;;;;30.92;14.23;;;;;;;-0.54;100.00;95777.72;4941262;28;20055;-83
2021/11/28 07:08:04;;;;;;;36.65;15.77;;;;;;;-0.57;100.00;95778.31;4981756;28;20046;-82
2021/11/28 07:10:31;;;;;;;42.47;17.92;;;;;;;-0.46;100.00;95787.69;4980013;28;20066;-79
2021/11/28 07:12:58;;;;;;;41.28;17.83;;;;;;;-0.32;100.00;95809.00;4979345;28;20047;-81
2021/11/28 07:15:24;;;;;;;30.02;14.90;;;;;;;-0.35;100.00;95790.97;4958481;28;20082;-80
2021/11/28 07:17:51;;;;;;;30.23;14.70;;;;;;;-0.25;100.00;95804.91;4977829;28;20051;-82
2021/11/28 07:20:17;;;;;;;32.42;14.48;;;;;;;-0.26;100.00;95800.66;4961264;28;20055;-80
2021/11/28 07:22:44;;;;;;;27.88;13.52;;;;;;;-0.16;100.00;95799.72;4979042;28;20554;-83
2021/11/28 07:25:11;;;;;;;26.98;13.77;;;;;;;-0.21;100.00;95779.34;4961132;28;20055;-81
2021/11/28 07:27:37;;;;;;;28.33;13.70;;;;;;;-0.21;100.00;95792.63;4978309;28;20050;-81
2021/11/28 07:30:05;;;;;;;29.38;13.75;;;;;;;-0.15;100.00;95786.13;4978964;28;20046;-80
2021/11/28 07:32:32;;;;;;;24.02;12.80;;;;;;;-0.34;100.00;95780.09;4978738;28;20101;-81
2021/11/28 07:34:59;;;;;;;27.17;13.05;;;;;;;-0.45;100.00;95791.16;4961600;28;20058;-82
2021/11/28 07:37:25;;;;;;;29.05;13.07;;;;;;;-0.30;100.00;95794.34;4980304;28;20418;-81
2021/11/28 07:39:52;;;;;;;25.55;13.20;;;;;;;-0.11;100.00;95791.66;4957702;28;20430;-80
2021/11/28 07:42:19;;;;;;;23.77;12.65;;;;;;;-0.10;100.00;95796.66;4967335;28;20073;-79
2021/11/28 07:44:45;;;;;;;29.15;13.73;;;;;;;-0.20;100.00;95793.38;4979036;28;20074;-80
2021/11/28 07:47:12;;;;;;;38.95;19.05;;;;;;;-0.15;100.00;95796.75;4980165;28;20552;-80
2021/11/28 07:49:38;;;;;;;76.18;31.27;;;;;;;-0.03;100.00;95805.06;4970234;28;20094;-79
2021/11/28 07:52:05;;;;;;;88.82;35.35;;;;;;;0.05;100.00;95798.28;4971850;28;20499;-81
2021/11/28 07:54:33;;;;;;;89.13;34.92;;;;;;;0.10;100.00;95802.72;4986835;28;20054;-81
2021/11/28 07:57:02;;;;;;;178.57;62.50;;;;;;;0.18;100.00;95804.72;4956228;28;20067;-80
2021/11/28 07:59:30;;;;;;;231.93;79.57;;;;;;;0.39;100.00;95808.56;4956688;28;20098;-79
2021/11/28 08:01:56;;;;;;;46.92;20.63;;;;;;;0.18;100.00;95808.13;4958140;28;20043;-82
2021/11/28 08:04:25;;;;;;;39.25;17.30;;;;;;;0.30;100.00;95807.69;4975731;28;20055;-81
2021/11/28 08:06:51;;;;;;;44.88;18.05;;;;;;;0.20;100.00;95800.69;4972810;28;20577;-78
2021/11/28 08:09:18;;;;;;;52.67;22.98;;;;;;;0.22;100.00;95801.16;4977695;28;20065;-79
2021/11/28 08:11:46;;;;;;;72.32;28.05;;;;;;;0.40;100.00;95805.63;4976161;28;20055;-81
2021/11/28 08:14:13;;;;;;;71.63;28.00;;;;;;;0.46;100.00;95795.69;4975507;28;20109;-78
2021/11/28 08:16:39;;;;;;;51.60;22.75;;;;;;;0.53;100.00;95810.16;4973886;28;20419;-80
2021/11/28 08:19:06;;;;;;;47.75;20.13;;;;;;;0.65;100.00;95814.97;4970231;28;20058;-81
2021/11/28 08:21:33;;;;;;;21.33;10.43;;;;;;;0.62;100.00;95812.91;4975066;28;20157;-81
2021/11/28 08:24:04;;;;;;;22.35;9.68;;;;;;;0.88;100.00;95799.91;4976008;28;20192;-79
2021/11/28 08:26:32;;;;;;;20.92;9.30;;;;;;;1.03;100.00;95807.56;4975912;28;20406;-79
2021/11/28 08:28:59;;;;;;;19.75;9.23;;;;;;;1.08;100.00;95802.94;4977012;28;20055;-80
2021/11/28 08:31:26;;;;;;;19.48;9.55;;;;;;;1.15;100.00;95813.97;4972988;28;20051;-79
2021/11/28 08:33:53;;;;;;;22.95;9.65;;;;;;;1.26;100.00;95801.19;4976250;28;20475;-80
2021/11/28 08:36:20;;;;;;;20.95;9.68;;;;;;;1.39;100.00;95787.06;4977781;28;20051;-80
2021/11/28 08:38:48;;;;;;;21.83;11.32;;;;;;;1.61;100.00;95804.94;4977586;28;20050;-80
2021/11/28 08:41:15;;;;;;;32.63;15.52;;;;;;;1.54;100.00;95800.03;4977607;28;20057;-80
2021/11/28 08:43:43;;;;;;;29.00;14.52;;;;;;;1.48;100.00;95800.44;4979778;28;20124;-79
2021/11/28 08:46:09;;;;;;;23.42;12.30;;;;;;;1.19;100.00;95811.47;4982613;28;20043;-81
2021/11/28 08:48:36;;;;;;;28.58;12.68;;;;;;;1.31;100.00;95803.75;4977537;28;20050;-82
2021/11/28 08:51:03;;;;;;;25.40;14.05;;;;;;;1.48;100.00;95801.22;4975130;28;20431;-80
2021/11/28 08:53:30;;;;;;;27.70;13.75;;;;;;;1.55;100.00;95809.59;4973131;28;20059;-83
2021/11/28 08:55:56;;;;;;;23.95;12.95;;;;;;;1.10;100.00;95816.72;4975140;28;20589;-77
2021/11/28 08:58:23;;;;;;;25.80;13.05;;;;;;;1.24;100.00;95830.81;4979316;28;20050;-80
2021/11/28 09:00:50;;;;;;;27.35;13.45;;;;;;;1.20;100.00;95829.84;4982254;28;20043;-79
2021/11/28 09:03:16;;;;;;;23.35;12.90;;;;;;;1.38;100.00;95824.66;4978668;28;20050;-82
2021/11/28 09:05:43;;;;;;;25.20;13.63;;;;;;;1.57;100.00;95823.44;4981046;28;20338;-79
2021/11/28 09:08:10;;;;;;;22.35;12.90;;;;;;;1.63;100.00;95813.41;4982906;28;20078;-79
2021/11/28 09:10:41;;;;;;;22.60;12.85;;;;;;;1.69;100.00;95825.53;4976781;28;20135;-84
2021/11/28 09:13:12;;;;;;;28.05;13.32;;;;;;;1.35;100.00;95822.56;4974062;28;20050;-81
2021/11/28 09:15:42;;;;;;;22.10;12.10;;;;;;;1.43;100.00;95816.53;4976298;28;20050;-80
2021/11/28 09:18:43;;;;;;;27.17;12.85;;;;;;;1.51;100.00;95811.28;4979857;28;20068;-80
2021/11/28 09:21:12;;;;;;;28.52;12.95;;;;;;;1.51;100.00;95811.28;4979765;28;20050;-77
2021/11/28 09:26:24;;;;;;;20.92;10.52;;;;;;;1.55;100.00;95814.91;4994913;28;20077;-78
2021/11/28 09:28:52;;;;;;;23.90;10.88;;;;;;;1.16;100.00;95796.09;4968622;29;20301;-78
2021/11/28 09:31:18;;;;;;;23.48;10.35;;;;;;;1.41;100.00;95802.72;4969507;28;20047;-80
2021/11/28 09:33:46;;;;;;;21.70;10.18;;;;;;;1.52;100.00;95798.75;4963466;29;20047;-80
2021/11/28 09:36:13;;;;;;;16.40;9.52;;;;;;;1.78;100.00;95791.72;4977924;28;20050;-80
2021/11/28 09:38:39;;;;;;;18.98;9.70;;;;;;;1.76;100.00;95816.03;4982691;28;20073;-81
2021/11/28 09:41:09;;;;;;;20.58;9.85;;;;;;;1.78;100.00;95797.84;4982111;28;20101;-82
2021/11/28 09:43:39;;;;;;;24.23;10.60;;;;;;;1.72;100.00;95800.94;4983446;28;20050;-80
2021/11/28 09:46:08;;;;;;;21.00;9.93;;;;;;;1.82;100.00;95796.16;4983351;28;20062;-80
2021/11/28 09:48:36;;;;;;;21.98;10.38;;;;;;;2.10;100.00;95794.13;4982354;28;20046;-79
2021/11/28 09:51:08;;;;;;;21.05;10.60;;;;;;;2.28;100.00;95803.78;4986739;28;20078;-81
2021/11/28 09:53:37;;;;;;;21.70;10.23;;;;;;;2.28;100.00;95790.44;4957667;28;20057;-80
2021/11/28 09:56:05;;;;;;;20.85;9.68;;;;;;;2.44;100.00;95801.50;4978290;28;20118;-80
2021/11/28 09:58:33;;;;;;;20.48;10.77;;;;;;;2.53;100.00;95796.22;4982002;28;20078;-79
2021/11/28 10:01:00;;;;;;;21.98;11.50;;;;;;;2.61;100.00;95793.56;4985584;28;20145;-80
2021/11/28 10:03:27;;;;;;;25.80;11.27;;;;;;;2.53;100.00;95787.09;4975017;28;20050;-79
2021/11/28 10:05:55;;;;;;;19.60;10.05;;;;;;;2.49;100.00;95782.69;4974636;28;20054;-80
2021/11/28 10:08:23;;;;;;;18.52;10.20;;;;;;;2.25;100.00;95788.38;4976464;28;20047;-81
2021/11/28 10:11:16;;;;;;;22.92;11.10;;;;;;;2.36;100.00;95786.22;4980203;28;20058;-79
2021/11/28 10:13:47;;;;;;;27.67;11.38;;;;;;;2.37;100.00;95788.63;4967821;28;20051;-79
2021/11/28 10:16:14;;;;;;;26.52;12.32;;;;;;;2.48;100.00;95784.56;4986203;28;20046;-77
2021/11/28 10:18:41;;;;;;;33.28;11.32;;;;;;;2.53;100.00;95785.53;4981657;28;20157;-79
2021/11/28 10:21:08;;;;;;;21.02;11.27;;;;;;;2.61;100.00;95782.88;4981589;28;20061;-79
2021/11/28 10:23:55;;;;;;;26.55;11.07;;;;;;;2.19;100.00;95781.63;4984298;28;20046;-78
2021/11/28 10:26:23;;;;;;;25.73;11.73;;;;;;;2.26;100.00;95781.16;4977505;28;20102;-80
2021/11/28 10:29:11;;;;;;;26.75;11.57;;;;;;;2.25;100.00;95787.59;4975948;28;20063;-79
2021/11/28 10:31:49;;;;;;;23.92;12.00;;;;;;;2.25;100.00;95782.25;4975046;28;20074;-79
2021/11/28 10:34:17;;;;;;;19.98;10.18;;;;;;;2.19;100.00;95786.16;4975793;28;20078;-78
2021/11/28 10:36:44;;;;;;;22.33;9.90;;;;;;;2.35;100.00;95788.09;4975420;28;20690;-79
2021/11/28 10:39:21;;;;;;;24.05;10.98;;;;;;;2.44;100.00;95785.50;4973523;28;20083;-82
2021/11/28 10:41:55;;;;;;;19.63;10.30;;;;;;;2.67;100.00;95783.53;4972877;28;20491;-83
2021/11/28 10:44:26;;;;;;;25.23;10.50;;;;;;;2.78;100.00;95788.28;4973408;28;20709;-83
2021/11/28 10:47:13;;;;;;;30.73;13.10;;;;;;;3.12;100.00;95796.34;4973381;28;20063;-78
2021/11/28 10:49:41;;;;;;;32.72;12.65;;;;;;;3.11;100.00;95797.47;4971901;28;20062;-77
2021/11/28 10:52:11;;;;;;;30.27;12.25;;;;;;;3.17;100.00;95795.44;4978634;28;20129;-78
2021/11/28 10:54:44;;;;;;;33.80;13.32;;;;;;;3.13;100.00;95797.94;4984372;28;20043;-77
2021/11/28 10:57:13;;;;;;;30.90;14.38;;;;;;;3.01;100.00;95795.09;4982159;28;20046;-78
2021/11/28 10:59:53;;;;;;;30.33;16.85;;;;;;;2.96;100.00;95797.91;4978804;28;20554;-76
2021/11/28 11:02:22;;;;;;;41.08;16.52;;;;;;;3.05;100.00;95803.25;4967082;28;20878;-76
2021/11/28 11:04:54;;;;;;;34.67;17.52;;;;;;;3.10;100.00;95795.09;4967331;28;20055;-76
2021/11/28 11:07:50;;;;;;;32.15;16.40;;;;;;;3.05;100.00;95785.34;4968281;28;20569;-77
2021/11/28 11:10:26;;;;;;;46.38;21.83;;;;;;;3.06;100.00;95780.81;4967464;28;20130;-77
2021/11/28 11:12:53;;;;;;;;;;;;;;;2.99;100.00;95788.50;4967562;28;20109;-76
2021/11/28 11:15:30;;;;;;;36.45;17.08;;;;;;;2.83;100.00;95788.13;4968617;28;19985;-79
2021/11/28 11:17:58;;;;;;;36.47;16.00;;;;;;;3.02;100.00;95795.91;4968582;28;20589;-78
2021/11/28 11:20:29;;;;;;;37.35;17.60;;;;;;;2.96;100.00;95784.56;4968971;28;20094;-78
2021/11/28 11:22:56;;;;;;;35.92;18.25;;;;;;;3.00;100.00;95769.47;4975679;28;20043;-79
2021/11/28 11:25:32;;;;;;;31.92;16.17;;;;;;;2.99;100.00;95783.91;4976625;28;20085;-80
2021/11/28 11:28:09;;;;;;;;;;;;;;;2.76;100.00;95785.13;4969311;28;20078;-80
2021/11/28 11:30:36;;;;;;;30.35;14.38;;;;;;;2.63;100.00;95783.38;4968080;28;19932;-79
2021/11/28 11:33:05;;;;;;;33.97;14.40;;;;;;;2.65;100.00;95775.03;4969271;28;20077;-80